Time;durP1;ratioP1;P1;durP2;ratioP2;P2;SDS_P1;SDS_P2;PMS_P1;PMS_P2;Temp;Humidity;BMP_temperature;BMP_pressure;BME280_temperature;BME280_humidity;BME280_pressure;Samples;Min_cycle;Max_cycle;Signal;HPM_P1;HPM_P2
2023/12/10 00:01:57;;;;;;;3.70;3.03;;;;;;;;;;5072535;28;20570;-57
2023/12/10 00:04:25;;;;;;;2.87;2.47;;;;;;;;;;5072902;28;20530;-56
2023/12/10 00:06:51;;;;;;;4.40;2.83;;;;;;;;;;5072479;28;20477;-56
2023/12/10 00:09:18;;;;;;;4.53;2.60;;;;;;;;;;5072913;28;20527;-56
2023/12/10 00:11:44;;;;;;;3.73;2.37;;;;;;;;;;5072182;28;20904;-56
2023/12/10 00:14:10;;;;;;;4.27;2.30;;;;;;;;;;5072716;28;20518;-56
2023/12/10 00:16:37;;;;;;;2.73;2.00;;;;;;;;;;5072348;28;20510;-56
2023/12/10 00:19:03;;;;;;;4.37;2.10;;;;;;;;;;5072781;28;20498;-56
2023/12/10 00:21:31;;;;;;;5.53;2.90;;;;;;;;;;5074315;28;20807;-56
2023/12/10 00:23:57;;;;;;;3.43;2.47;;;;;;;;;;5076420;28;20505;-56
2023/12/10 00:26:24;;;;;;;3.97;2.30;;;;;;;;;;5076517;28;20473;-56
2023/12/10 00:28:50;;;;;;;4.73;2.50;;;;;;;;;;5075837;28;20507;-56
2023/12/10 00:31:17;;;;;;;3.03;2.30;;;;;;;;;;5076428;28;20441;-56
2023/12/10 00:33:43;;;;;;;3.87;2.47;;;;;;;;;;5076025;28;20917;-56
2023/12/10 00:36:10;;;;;;;3.30;2.13;;;;;;;;;;5076286;28;20466;-56
2023/12/10 00:38:38;;;;;;;5.00;2.20;;;;;;;;;;5075591;28;20553;-56
2023/12/10 00:41:05;;;;;;;2.07;1.83;;;;;;;;;;5075960;28;20936;-56
2023/12/10 00:43:32;;;;;;;3.20;1.90;;;;;;;;;;5075589;28;20520;-56
2023/12/10 00:45:58;;;;;;;2.10;1.80;;;;;;;;;;5076016;28;20494;-57
2023/12/10 00:48:25;;;;;;;2.63;1.90;;;;;;;;;;5075399;28;20558;-56
2023/12/10 00:50:51;;;;;;;4.20;2.20;;;;;;;;;;5076098;28;20522;-56
2023/12/10 00:53:17;;;;;;;4.40;2.77;;;;;;;;;;5075186;28;20573;-56
2023/12/10 00:55:46;;;;;;;6.77;2.80;;;;;;;;;;5075957;28;20538;-57
2023/12/10 00:58:13;;;;;;;3.20;2.90;;;;;;;;;;5075540;28;20988;-56
2023/12/10 01:00:40;;;;;;;5.90;2.20;;;;;;;;;;5075536;28;21006;-56
2023/12/10 01:03:07;;;;;;;4.13;2.00;;;;;;;;;;5075129;28;20524;-56
2023/12/10 01:05:33;;;;;;;4.20;2.03;;;;;;;;;;5075785;28;20454;-56
2023/12/10 01:08:00;;;;;;;3.33;2.10;;;;;;;;;;5075503;28;20664;-56
2023/12/10 01:10:26;;;;;;;4.00;2.37;;;;;;;;;;5075486;28;20477;-55
2023/12/10 01:12:54;;;;;;;4.60;2.20;;;;;;;;;;5075283;28;20561;-56
2023/12/10 01:15:29;;;;;;;4.87;3.00;;;;;;;;;;5075590;28;20491;-56
2023/12/10 01:17:56;;;;;;;4.73;2.43;;;;;;;;;;5074991;28;20497;-56
2023/12/10 01:20:22;;;;;;;3.63;2.00;;;;;;;;;;5075538;28;20524;-56
2023/12/10 01:22:49;;;;;;;3.67;2.17;;;;;;;;;;5074943;28;20528;-56
2023/12/10 01:25:15;;;;;;;3.23;1.90;;;;;;;;;;5075120;28;20469;-56
2023/12/10 01:27:42;;;;;;;3.60;2.97;;;;;;;;;;5074915;28;20549;-56
2023/12/10 01:30:10;;;;;;;5.77;3.00;;;;;;;;;;5075375;28;20447;-56
2023/12/10 01:32:37;;;;;;;2.63;1.80;;;;;;;;;;5074060;28;20509;-56
2023/12/10 01:35:04;;;;;;;3.20;2.30;;;;;;;;;;5075223;28;20490;-56
2023/12/10 01:37:30;;;;;;;5.00;2.43;;;;;;;;;;5074474;28;20478;-56
2023/12/10 01:39:57;;;;;;;3.67;1.97;;;;;;;;;;5075199;28;20534;-56
2023/12/10 01:42:23;;;;;;;8.60;2.70;;;;;;;;;;5074374;28;20889;-56
2023/12/10 01:44:49;;;;;;;3.10;2.20;;;;;;;;;;5075002;28;20535;-56
2023/12/10 01:47:18;;;;;;;5.90;2.60;;;;;;;;;;5074222;28;20562;-56
2023/12/10 01:49:45;;;;;;;2.97;2.07;;;;;;;;;;5074965;28;20442;-56
2023/12/10 01:52:11;;;;;;;6.80;2.03;;;;;;;;;;5074439;28;20521;-56
2023/12/10 01:54:38;;;;;;;3.77;2.70;;;;;;;;;;5074450;28;20578;-56
2023/12/10 01:57:04;;;;;;;4.30;2.40;;;;;;;;;;5074482;28;20809;-56
2023/12/10 01:59:31;;;;;;;2.57;1.80;;;;;;;;;;5074433;28;20529;-56
2023/12/10 02:01:58;;;;;;;4.63;2.77;;;;;;;;;;5074111;28;20886;-56
2023/12/10 02:04:26;;;;;;;2.70;2.17;;;;;;;;;;5074590;28;20542;-55
2023/12/10 02:06:52;;;;;;;6.07;2.93;;;;;;;;;;5073879;28;20434;-55
2023/12/10 02:09:19;;;;;;;2.43;2.10;;;;;;;;;;5074340;28;20500;-56
2023/12/10 02:11:45;;;;;;;3.20;1.83;;;;;;;;;;5074122;28;20530;-55
2023/12/10 02:14:12;;;;;;;2.50;2.03;;;;;;;;;;5073991;28;20566;-57
2023/12/10 02:16:39;;;;;;;2.40;2.07;;;;;;;;;;5073940;28;20469;-57
2023/12/10 02:19:05;;;;;;;2.50;1.83;;;;;;;;;;5074080;28;20534;-57
2023/12/10 02:21:33;;;;;;;2.23;1.80;;;;;;;;;;5074055;28;20525;-57
2023/12/10 02:24:00;;;;;;;4.07;2.23;;;;;;;;;;5073986;28;20495;-57
2023/12/10 02:26:28;;;;;;;5.77;2.50;;;;;;;;;;5074966;28;20865;-57
2023/12/10 02:28:55;;;;;;;3.47;2.37;;;;;;;;;;5073412;28;21079;-57
2023/12/10 02:31:21;;;;;;;2.87;2.10;;;;;;;;;;5074078;28;20467;-57
2023/12/10 02:33:48;;;;;;;4.67;2.67;;;;;;;;;;5073292;28;20582;-57
2023/12/10 02:36:14;;;;;;;3.57;2.40;;;;;;;;;;5074016;28;20474;-57
2023/12/10 02:38:40;;;;;;;4.77;2.30;;;;;;;;;;5073398;28;20498;-57
2023/12/10 02:41:07;;;;;;;4.57;2.43;;;;;;;;;;5073914;28;20521;-57
2023/12/10 02:43:35;;;;;;;3.40;1.80;;;;;;;;;;5072943;28;20467;-57
2023/12/10 02:46:01;;;;;;;6.20;2.73;;;;;;;;;;5073750;28;20886;-58
2023/12/10 02:48:28;;;;;;;4.23;2.13;;;;;;;;;;5073604;28;20827;-57
2023/12/10 02:50:55;;;;;;;3.67;2.30;;;;;;;;;;5073766;28;20443;-57
2023/12/10 02:53:21;;;;;;;3.00;1.80;;;;;;;;;;5073022;28;20569;-57
2023/12/10 02:55:48;;;;;;;3.83;1.90;;;;;;;;;;5073320;28;20530;-57
2023/12/10 02:58:15;;;;;;;4.83;2.33;;;;;;;;;;5073461;28;20563;-57
2023/12/10 03:00:43;;;;;;;6.57;2.23;;;;;;;;;;5073625;28;20451;-57
2023/12/10 03:03:09;;;;;;;4.17;2.07;;;;;;;;;;5073071;28;20561;-57
2023/12/10 03:05:35;;;;;;;6.40;2.70;;;;;;;;;;5073527;28;20543;-57
2023/12/10 03:08:02;;;;;;;4.83;2.53;;;;;;;;;;5073371;28;20908;-57
2023/12/10 03:10:28;;;;;;;3.43;1.77;;;;;;;;;;5073512;28;20466;-57
2023/12/10 03:12:55;;;;;;;6.73;2.47;;;;;;;;;;5072845;28;20554;-57
2023/12/10 03:15:21;;;;;;;3.00;2.07;;;;;;;;;;5073331;28;20487;-57
2023/12/10 03:17:49;;;;;;;2.60;2.07;;;;;;;;;;5072845;28;20600;-58
2023/12/10 03:20:15;;;;;;;4.30;2.37;;;;;;;;;;5073103;28;20890;-56
2023/12/10 03:22:42;;;;;;;3.73;2.43;;;;;;;;;;5072913;28;20498;-55
2023/12/10 03:25:08;;;;;;;4.93;2.50;;;;;;;;;;5073252;28;20459;-57
2023/12/10 03:27:35;;;;;;;2.73;1.80;;;;;;;;;;5072975;28;20550;-57
2023/12/10 03:30:01;;;;;;;4.23;1.80;;;;;;;;;;5073368;28;20517;-57
2023/12/10 03:32:27;;;;;;;4.00;2.30;;;;;;;;;;5072713;28;21032;-57
2023/12/10 03:34:55;;;;;;;4.30;2.10;;;;;;;;;;5073105;28;20569;-57
2023/12/10 03:37:22;;;;;;;5.57;1.93;;;;;;;;;;5072767;28;21026;-58
2023/12/10 03:39:48;;;;;;;4.20;2.13;;;;;;;;;;5072945;28;20933;-57
2023/12/10 03:42:15;;;;;;;3.30;2.17;;;;;;;;;;5072605;28;20554;-57
2023/12/10 03:44:41;;;;;;;3.90;2.03;;;;;;;;;;5073087;28;20506;-57
2023/12/10 03:47:07;;;;;;;3.50;2.20;;;;;;;;;;5072607;28;20546;-57
2023/12/10 03:49:34;;;;;;;4.03;2.40;;;;;;;;;;5072255;28;20534;-55
2023/12/10 03:52:02;;;;;;;5.57;2.13;;;;;;;;;;5072149;28;20560;-55
2023/12/10 03:54:28;;;;;;;6.37;2.00;;;;;;;;;;5072157;28;20586;-58
2023/12/10 03:56:54;;;;;;;7.60;2.20;;;;;;;;;;5076097;28;20486;-56
2023/12/10 03:59:21;;;;;;;2.37;1.63;;;;;;;;;;5076868;28;20526;-57
2023/12/10 04:01:47;;;;;;;3.73;2.37;;;;;;;;;;5075950;28;20462;-58
2023/12/10 04:04:13;;;;;;;2.37;1.80;;;;;;;;;;5076270;28;20501;-56
2023/12/10 04:06:40;;;;;;;2.97;1.90;;;;;;;;;;5075619;28;21004;-56
2023/12/10 04:09:08;;;;;;;5.60;2.40;;;;;;;;;;5076290;28;20526;-55
2023/12/10 04:11:34;;;;;;;6.03;2.40;;;;;;;;;;5075752;28;20434;-56
2023/12/10 04:14:01;;;;;;;3.10;2.13;;;;;;;;;;5075970;28;20940;-57
2023/12/10 04:16:28;;;;;;;3.97;2.03;;;;;;;;;;5076081;28;20530;-55
2023/12/10 04:18:54;;;;;;;4.03;2.03;;;;;;;;;;5075815;28;20561;-55
2023/12/10 04:21:21;;;;;;;2.73;1.70;;;;;;;;;;5075695;28;20541;-56
2023/12/10 04:23:48;;;;;;;5.87;2.13;;;;;;;;;;5075213;28;20547;-56
2023/12/10 04:26:16;;;;;;;3.97;2.47;;;;;;;;;;5075951;28;20525;-55
2023/12/10 04:28:42;;;;;;;4.00;2.33;;;;;;;;;;5075594;28;20494;-55
2023/12/10 04:31:09;;;;;;;3.10;2.13;;;;;;;;;;5075442;28;20897;-55
2023/12/10 04:33:35;;;;;;;4.20;1.90;;;;;;;;;;5074902;28;20996;-56
2023/12/10 04:36:02;;;;;;;4.03;1.80;;;;;;;;;;5075846;28;20525;-55
2023/12/10 04:38:29;;;;;;;3.97;2.00;;;;;;;;;;5075098;28;20471;-55
2023/12/10 04:40:55;;;;;;;4.67;2.20;;;;;;;;;;5075665;28;20445;-56
2023/12/10 04:43:23;;;;;;;3.23;1.80;;;;;;;;;;5075246;28;21039;-55
2023/12/10 04:45:49;;;;;;;5.00;1.90;;;;;;;;;;5075508;28;20493;-55
2023/12/10 04:48:16;;;;;;;2.47;1.53;;;;;;;;;;5074966;28;20553;-55
2023/12/10 04:50:42;;;;;;;5.07;2.00;;;;;;;;;;5075477;28;20474;-56
2023/12/10 04:53:08;;;;;;;3.10;2.03;;;;;;;;;;5074918;28;20494;-55
2023/12/10 04:55:35;;;;;;;4.80;2.10;;;;;;;;;;5075277;28;20573;-56
2023/12/10 04:58:01;;;;;;;3.77;2.30;;;;;;;;;;5074931;28;21043;-55
2023/12/10 05:00:29;;;;;;;3.27;2.33;;;;;;;;;;5075077;28;20435;-55
2023/12/10 05:02:55;;;;;;;4.60;2.00;;;;;;;;;;5074644;28;20494;-56
2023/12/10 05:05:22;;;;;;;5.17;2.10;;;;;;;;;;5075253;28;20497;-57
2023/12/10 05:07:48;;;;;;;5.37;2.77;;;;;;;;;;5073764;28;20545;-58
2023/12/10 05:10:14;;;;;;;3.17;1.60;;;;;;;;;;5075184;28;20849;-58
2023/12/10 05:12:41;;;;;;;2.93;2.07;;;;;;;;;;5074773;28;20551;-56
2023/12/10 05:15:08;;;;;;;3.70;2.23;;;;;;;;;;5074674;28;21068;-56
2023/12/10 05:17:35;;;;;;;3.47;1.77;;;;;;;;;;5074435;28;20549;-55
2023/12/10 05:20:05;;;;;;;2.63;1.90;;;;;;;;;;5075033;28;20550;-56
2023/12/10 05:22:31;;;;;;;2.83;1.37;;;;;;;;;;5074266;28;20558;-55
2023/12/10 05:24:57;;;;;;;3.27;2.07;;;;;;;;;;5074814;28;20550;-56
2023/12/10 05:27:24;;;;;;;3.70;1.97;;;;;;;;;;5074473;28;20551;-55
2023/12/10 05:29:51;;;;;;;2.60;2.03;;;;;;;;;;5074811;28;20445;-55
2023/12/10 05:32:17;;;;;;;4.30;2.50;;;;;;;;;;5074200;28;21063;-55
2023/12/10 05:34:44;;;;;;;6.70;1.97;;;;;;;;;;5074616;28;20577;-56
2023/12/10 05:37:10;;;;;;;2.83;2.10;;;;;;;;;;5074147;28;20473;-55
2023/12/10 05:39:37;;;;;;;5.03;2.00;;;;;;;;;;5074298;28;20791;-56
2023/12/10 05:42:03;;;;;;;4.27;2.47;;;;;;;;;;5074065;28;20487;-56
2023/12/10 05:44:29;;;;;;;3.77;1.70;;;;;;;;;;5074445;28;20494;-55
2023/12/10 05:46:56;;;;;;;3.77;1.63;;;;;;;;;;5074101;28;20555;-55
2023/12/10 05:49:22;;;;;;;3.10;1.60;;;;;;;;;;5074467;28;20820;-55
2023/12/10 05:51:50;;;;;;;3.90;2.00;;;;;;;;;;5073931;28;20431;-56
2023/12/10 05:54:17;;;;;;;4.03;1.90;;;;;;;;;;5073876;28;20545;-55
2023/12/10 05:56:43;;;;;;;1.83;1.70;;;;;;;;;;5073495;28;20522;-56
2023/12/10 05:59:09;;;;;;;2.00;1.17;;;;;;;;;;5073856;28;20879;-56
2023/12/10 06:01:36;;;;;;;3.00;1.70;;;;;;;;;;5073391;28;20518;-56
2023/12/10 06:04:02;;;;;;;2.97;2.20;;;;;;;;;;5073988;28;20542;-55
2023/12/10 06:06:29;;;;;;;2.67;1.53;;;;;;;;;;5074062;28;20522;-56
2023/12/10 06:08:56;;;;;;;2.67;1.70;;;;;;;;;;5073614;28;20894;-56
2023/12/10 06:11:23;;;;;;;4.57;2.20;;;;;;;;;;5073619;28;20486;-55
2023/12/10 06:13:49;;;;;;;1.83;1.43;;;;;;;;;;5073114;28;20565;-55
2023/12/10 06:16:15;;;;;;;3.00;1.63;;;;;;;;;;5073829;28;20569;-55
2023/12/10 06:18:42;;;;;;;3.87;1.80;;;;;;;;;;5073548;28;21013;-55
2023/12/10 06:21:08;;;;;;;2.97;1.70;;;;;;;;;;5073562;28;20538;-55
2023/12/10 06:23:35;;;;;;;3.63;1.60;;;;;;;;;;5073482;28;20494;-57
2023/12/10 06:26:02;;;;;;;2.67;1.37;;;;;;;;;;5073593;28;20521;-55
2023/12/10 06:28:29;;;;;;;3.13;1.50;;;;;;;;;;5073348;28;20557;-55
2023/12/10 06:30:55;;;;;;;3.03;1.53;;;;;;;;;;5073275;28;20529;-55
2023/12/10 06:33:21;;;;;;;2.20;1.60;;;;;;;;;;5073505;28;20890;-56
2023/12/10 06:35:48;;;;;;;2.90;1.50;;;;;;;;;;5073413;28;20573;-56
2023/12/10 06:38:14;;;;;;;3.27;1.90;;;;;;;;;;5073107;28;20650;-55
2023/12/10 06:40:41;;;;;;;2.20;1.17;;;;;;;;;;5073146;28;20562;-55
2023/12/10 06:43:08;;;;;;;3.00;1.80;;;;;;;;;;5072625;28;20649;-55
2023/12/10 06:45:35;;;;;;;3.97;2.10;;;;;;;;;;5072951;28;21043;-55
2023/12/10 06:48:01;;;;;;;3.53;1.67;;;;;;;;;;5072602;28;20554;-55
2023/12/10 06:50:27;;;;;;;2.80;1.60;;;;;;;;;;5072876;28;20975;-56
2023/12/10 06:52:54;;;;;;;2.20;1.53;;;;;;;;;;5072627;28;20491;-56
2023/12/10 06:55:20;;;;;;;2.03;1.20;;;;;;;;;;5072736;28;21047;-56
2023/12/10 06:57:47;;;;;;;3.43;1.73;;;;;;;;;;5072514;28;20549;-56
2023/12/10 07:00:17;;;;;;;2.37;1.30;;;;;;;;;;5072790;28;20529;-56
2023/12/10 07:02:43;;;;;;;5.50;2.17;;;;;;;;;;5072416;28;20529;-56
2023/12/10 07:05:10;;;;;;;3.30;1.70;;;;;;;;;;5072618;28;20542;-56
2023/12/10 07:07:36;;;;;;;2.80;1.50;;;;;;;;;;5072556;28;20477;-56
2023/12/10 07:10:03;;;;;;;3.57;1.40;;;;;;;;;;5072631;28;20892;-56
2023/12/10 07:12:30;;;;;;;5.40;1.97;;;;;;;;;;5072406;28;20463;-56
2023/12/10 07:14:56;;;;;;;3.50;1.50;;;;;;;;;;5072829;28;20570;-56
2023/12/10 07:17:24;;;;;;;2.40;1.43;;;;;;;;;;5072275;28;20546;-56
2023/12/10 07:19:50;;;;;;;1.57;1.47;;;;;;;;;;5072866;28;20522;-56
2023/12/10 07:22:16;;;;;;;2.83;1.80;;;;;;;;;;5072115;28;20546;-56
2023/12/10 07:24:43;;;;;;;3.00;1.37;;;;;;;;;;5072683;28;20542;-56
2023/12/10 07:27:09;;;;;;;2.53;1.60;;;;;;;;;;5072207;28;20550;-55
2023/12/10 07:29:36;;;;;;;2.90;1.43;;;;;;;;;;5072079;28;21015;-55
2023/12/10 07:32:02;;;;;;;2.40;1.67;;;;;;;;;;5072255;28;20546;-55
2023/12/10 07:34:30;;;;;;;2.53;1.50;;;;;;;;;;5072572;28;20463;-55
2023/12/10 07:36:56;;;;;;;2.63;1.23;;;;;;;;;;5072031;28;20501;-56
2023/12/10 07:39:23;;;;;;;1.90;1.37;;;;;;;;;;5072649;28;20526;-55
2023/12/10 07:41:50;;;;;;;2.50;1.60;;;;;;;;;;5072120;28;20447;-55
2023/12/10 07:44:16;;;;;;;3.30;1.50;;;;;;;;;;5072575;28;20769;-55
2023/12/10 07:46:42;;;;;;;3.47;1.70;;;;;;;;;;5072135;28;20457;-56
2023/12/10 07:49:09;;;;;;;3.03;1.60;;;;;;;;;;5072122;28;20617;-55
2023/12/10 07:51:37;;;;;;;2.30;1.40;;;;;;;;;;5071709;28;20900;-56
2023/12/10 07:54:03;;;;;;;1.70;1.20;;;;;;;;;;5072058;28;20534;-56
2023/12/10 07:56:31;;;;;;;2.73;1.43;;;;;;;;;;5072080;28;20565;-56
2023/12/10 07:58:57;;;;;;;1.40;1.10;;;;;;;;;;5071833;28;21065;-56
2023/12/10 08:01:24;;;;;;;4.57;1.30;;;;;;;;;;5072371;28;20534;-56
2023/12/10 08:03:50;;;;;;;2.03;1.37;;;;;;;;;;5071713;28;20549;-56
2023/12/10 08:06:16;;;;;;;2.40;1.37;;;;;;;;;;5072371;28;20514;-56
2023/12/10 08:08:45;;;;;;;4.60;1.80;;;;;;;;;;5071782;28;20491;-56
2023/12/10 08:11:12;;;;;;;5.13;1.63;;;;;;;;;;5072304;28;20450;-56
2023/12/10 08:13:39;;;;;;;1.63;1.13;;;;;;;;;;5071767;28;20537;-56
2023/12/10 08:16:06;;;;;;;4.03;1.80;;;;;;;;;;5072190;28;20570;-56
2023/12/10 08:18:33;;;;;;;2.33;1.20;;;;;;;;;;5071532;28;21003;-55
2023/12/10 08:21:01;;;;;;;2.00;1.10;;;;;;;;;;5072089;28;20479;-55
2023/12/10 08:23:27;;;;;;;1.30;1.20;;;;;;;;;;5071502;28;20533;-55
2023/12/10 08:25:55;;;;;;;1.87;1.20;;;;;;;;;;5072084;28;20490;-56
2023/12/10 08:28:21;;;;;;;1.97;1.50;;;;;;;;;;5071738;28;21055;-55
2023/12/10 08:30:47;;;;;;;1.87;1.40;;;;;;;;;;5071956;28;20518;-56
2023/12/10 08:33:14;;;;;;;1.73;1.23;;;;;;;;;;5071416;28;20509;-55
2023/12/10 08:35:41;;;;;;;2.40;1.20;;;;;;;;;;5071990;28;20574;-56
2023/12/10 08:38:07;;;;;;;1.60;0.90;;;;;;;;;;5071616;28;20486;-55
2023/12/10 08:40:34;;;;;;;1.60;1.13;;;;;;;;;;5071719;28;20956;-57
2023/12/10 08:43:01;;;;;;;2.23;1.20;;;;;;;;;;5073996;28;20554;-57
2023/12/10 08:45:28;;;;;;;3.03;1.50;;;;;;;;;;5075806;28;20459;-58
2023/12/10 08:47:55;;;;;;;2.00;1.00;;;;;;;;;;5074940;28;20470;-58
2023/12/10 08:50:21;;;;;;;3.63;1.30;;;;;;;;;;5075465;28;20522;-56
2023/12/10 08:52:47;;;;;;;2.40;1.57;;;;;;;;;;5074846;28;20546;-56
2023/12/10 08:55:14;;;;;;;3.60;1.40;;;;;;;;;;5075353;28;20554;-56
2023/12/10 08:57:40;;;;;;;6.17;1.43;;;;;;;;;;5075082;28;20554;-56
2023/12/10 09:00:09;;;;;;;2.83;1.43;;;;;;;;;;5075227;28;20533;-57
2023/12/10 09:02:35;;;;;;;2.00;1.37;;;;;;;;;;5074948;28;20466;-56
2023/12/10 09:05:01;;;;;;;2.90;2.03;;;;;;;;;;5075217;28;20550;-56
2023/12/10 09:07:29;;;;;;;2.40;1.30;;;;;;;;;;5074764;28;20467;-56
2023/12/10 09:09:59;;;;;;;3.20;1.67;;;;;;;;;;5075116;28;20435;-56
2023/12/10 09:12:25;;;;;;;2.30;1.20;;;;;;;;;;5075355;28;20532;-56
2023/12/10 09:14:52;;;;;;;4.53;1.63;;;;;;;;;;5074716;28;20546;-56
2023/12/10 09:17:20;;;;;;;3.77;1.57;;;;;;;;;;5074212;28;20558;-56
2023/12/10 09:19:47;;;;;;;2.73;1.43;;;;;;;;;;5074941;28;20513;-56
2023/12/10 09:22:13;;;;;;;2.47;1.80;;;;;;;;;;5074161;28;20562;-56
2023/12/10 09:24:40;;;;;;;2.50;1.13;;;;;;;;;;5074587;28;20534;-57
2023/12/10 09:27:07;;;;;;;2.07;1.40;;;;;;;;;;5074406;28;20471;-56
2023/12/10 09:29:38;;;;;;;1.80;1.10;;;;;;;;;;5074847;28;20463;-57
2023/12/10 09:32:04;;;;;;;2.93;1.73;;;;;;;;;;5074132;28;20494;-56
2023/12/10 09:34:32;;;;;;;2.17;1.20;;;;;;;;;;5074547;28;21047;-57
2023/12/10 09:36:59;;;;;;;2.10;1.40;;;;;;;;;;5074222;28;20551;-56
2023/12/10 09:39:26;;;;;;;3.13;1.37;;;;;;;;;;5074602;28;20534;-56
2023/12/10 09:41:52;;;;;;;3.00;1.40;;;;;;;;;;5074193;28;20546;-56
2023/12/10 09:44:19;;;;;;;2.23;0.93;;;;;;;;;;5074389;28;20505;-56
2023/12/10 09:46:45;;;;;;;1.53;1.40;;;;;;;;;;5073994;28;20500;-56
2023/12/10 09:49:12;;;;;;;2.33;1.50;;;;;;;;;;5074071;28;20965;-56
2023/12/10 09:51:40;;;;;;;2.20;1.20;;;;;;;;;;5073644;28;20928;-58
2023/12/10 09:54:07;;;;;;;4.10;1.27;;;;;;;;;;5073645;28;20542;-58
2023/12/10 09:56:33;;;;;;;1.60;1.20;;;;;;;;;;5073907;28;20556;-57
2023/12/10 09:58:59;;;;;;;1.50;1.07;;;;;;;;;;5073974;28;20522;-56
2023/12/10 10:01:25;;;;;;;4.77;1.67;;;;;;;;;;5074057;28;20538;-56
2023/12/10 10:03:51;;;;;;;2.97;1.17;;;;;;;;;;5073558;28;20886;-55
2023/12/10 10:06:18;;;;;;;2.50;1.17;;;;;;;;;;5071990;28;20288;-56
2023/12/10 10:08:45;;;;;;;4.33;1.70;;;;;;;;;;5072588;28;20473;-56
2023/12/10 10:11:12;;;;;;;4.70;1.33;;;;;;;;;;5074056;28;20535;-56
2023/12/10 10:13:38;;;;;;;1.00;0.90;;;;;;;;;;5073156;28;20545;-56
2023/12/10 10:16:12;;;;;;;2.77;1.40;;;;;;;;;;5073792;28;20562;-56
2023/12/10 10:18:41;;;;;;;1.83;1.30;;;;;;;;;;5073101;28;20520;-56
2023/12/10 10:21:08;;;;;;;4.50;1.10;;;;;;;;;;5073614;28;20455;-56
2023/12/10 10:23:34;;;;;;;2.80;1.30;;;;;;;;;;5073112;28;20470;-55
2023/12/10 10:26:02;;;;;;;5.33;1.57;;;;;;;;;;5073585;28;20526;-56
2023/12/10 10:28:29;;;;;;;2.30;1.07;;;;;;;;;;5073328;28;20549;-55
2023/12/10 10:30:56;;;;;;;1.23;1.13;;;;;;;;;;5073598;28;20530;-56
2023/12/10 10:33:24;;;;;;;2.83;1.37;;;;;;;;;;5073030;28;20549;-55
2023/12/10 10:35:52;;;;;;;1.57;1.10;;;;;;;;;;5073378;28;20566;-56
2023/12/10 10:38:20;;;;;;;2.10;1.10;;;;;;;;;;5073143;28;20463;-56
2023/12/10 10:40:47;;;;;;;2.67;1.23;;;;;;;;;;5073315;28;20451;-56
2023/12/10 10:43:16;;;;;;;3.80;1.47;;;;;;;;;;5072649;28;20549;-57
2023/12/10 10:45:42;;;;;;;1.80;1.20;;;;;;;;;;5072881;28;20546;-56
2023/12/10 10:48:09;;;;;;;2.63;1.27;;;;;;;;;;5072723;28;20559;-56
2023/12/10 10:50:37;;;;;;;3.70;1.33;;;;;;;;;;5073193;28;20526;-56
2023/12/10 10:53:04;;;;;;;1.87;1.17;;;;;;;;;;5072506;28;20573;-56
2023/12/10 10:55:30;;;;;;;5.07;1.20;;;;;;;;;;5073199;28;20546;-56
2023/12/10 10:57:57;;;;;;;1.80;1.33;;;;;;;;;;5072501;28;20566;-56
2023/12/10 11:00:35;;;;;;;1.67;1.17;;;;;;;;;;5073071;28;20530;-56
2023/12/10 11:10:51;;;;;;;2.10;1.07;;;;;;;;;;5077588;27;20563;-81
2023/12/10 11:13:39;;;;;;;1.67;1.00;;;;;;;;;;5052554;28;20543;-81
2023/12/10 11:16:07;;;;;;;2.80;1.20;;;;;;;;;;5030014;28;20471;-83
2023/12/10 11:18:50;;;;;;;1.80;1.37;;;;;;;;;;5061561;28;20497;-83
2023/12/10 11:21:16;;;;;;;2.20;1.20;;;;;;;;;;5030583;28;20418;-83
2023/12/10 11:23:43;;;;;;;1.80;0.73;;;;;;;;;;5030790;28;20536;-83
2023/12/10 11:26:11;;;;;;;2.70;1.10;;;;;;;;;;5029569;28;20433;-83
2023/12/10 11:28:38;;;;;;;1.83;0.90;;;;;;;;;;5030671;28;20552;-83
2023/12/10 11:31:04;;;;;;;1.63;1.00;;;;;;;;;;5062866;28;20531;-83
2023/12/10 11:33:31;;;;;;;2.47;1.40;;;;;;;;;;5030094;28;20523;-83
2023/12/10 11:36:00;;;;;;;2.53;1.53;;;;;;;;;;5030627;28;20488;-81
2023/12/10 11:38:26;;;;;;;3.93;1.40;;;;;;;;;;5030599;28;20477;-83
2023/12/10 11:40:53;;;;;;;4.67;1.50;;;;;;;;;;5030704;28;20568;-84
2023/12/10 11:43:26;;;;;;;4.67;1.70;;;;;;;;;;5029791;28;20821;-84
2023/12/10 11:45:52;;;;;;;3.23;1.40;;;;;;;;;;5030199;28;20831;-83
2023/12/10 11:48:19;;;;;;;2.23;1.10;;;;;;;;;;5028254;28;20556;-84
2023/12/10 11:50:46;;;;;;;6.17;1.70;;;;;;;;;;5061558;28;20559;-84
2023/12/10 11:53:15;;;;;;;6.63;2.47;;;;;;;;;;5029800;28;20548;-85
2023/12/10 11:55:42;;;;;;;5.30;1.53;;;;;;;;;;5062207;28;20499;-85
2023/12/10 11:58:09;;;;;;;2.20;1.20;;;;;;;;;;5030098;28;20493;-83
2023/12/10 12:00:37;;;;;;;4.57;1.97;;;;;;;;;;5030237;28;20448;-83
2023/12/10 12:03:05;;;;;;;4.03;1.40;;;;;;;;;;5029631;28;20555;-84
2023/12/10 12:05:32;;;;;;;10.70;2.20;;;;;;;;;;5029655;28;20554;-84
2023/12/10 12:08:02;;;;;;;2.00;1.70;;;;;;;;;;5028939;28;20572;-83
2023/12/10 12:10:36;;;;;;;9.97;1.87;;;;;;;;;;5029633;28;20897;-83
2023/12/10 12:13:03;;;;;;;8.97;2.20;;;;;;;;;;5029004;28;20902;-83
2023/12/10 12:15:29;;;;;;;3.10;1.87;;;;;;;;;;5029433;28;20511;-84
2023/12/10 12:17:57;;;;;;;5.53;2.77;;;;;;;;;;5029144;28;20543;-84
2023/12/10 12:20:25;;;;;;;3.17;1.77;;;;;;;;;;5025622;28;20485;-82
2023/12/10 12:22:52;;;;;;;9.10;2.47;;;;;;;;;;5015071;28;20480;-84
2023/12/10 12:25:18;;;;;;;7.23;1.83;;;;;;;;;;5016396;28;20497;-84
2023/12/10 12:27:45;;;;;;;8.70;2.20;;;;;;;;;;5015707;28;20500;-82
2023/12/10 12:30:12;;;;;;;5.13;2.00;;;;;;;;;;5047863;28;20564;-84
2023/12/10 12:32:38;;;;;;;6.80;2.27;;;;;;;;;;5014964;28;20886;-83
2023/12/10 12:35:06;;;;;;;10.63;2.67;;;;;;;;;;5015024;28;20470;-84
2023/12/10 12:37:33;;;;;;;6.63;2.43;;;;;;;;;;5015853;28;20505;-85
2023/12/10 12:39:59;;;;;;;9.70;3.03;;;;;;;;;;5016324;28;20524;-84
2023/12/10 12:42:26;;;;;;;8.67;3.07;;;;;;;;;;5015301;28;20540;-85
2023/12/10 12:44:52;;;;;;;5.63;2.00;;;;;;;;;;5014722;28;20458;-84
2023/12/10 12:47:19;;;;;;;11.90;2.77;;;;;;;;;;5015440;28;20474;-84
2023/12/10 12:49:46;;;;;;;5.33;3.20;;;;;;;;;;5014386;28;20478;-84
2023/12/10 12:52:15;;;;;;;10.23;2.93;;;;;;;;;;5015371;28;20544;-84
2023/12/10 12:54:41;;;;;;;12.23;3.93;;;;;;;;;;5015861;28;20510;-83
2023/12/10 12:57:08;;;;;;;9.30;4.33;;;;;;;;;;5014712;28;20501;-83
2023/12/10 12:59:34;;;;;;;14.33;4.23;;;;;;;;;;5015938;28;20878;-83
2023/12/10 13:02:01;;;;;;;16.20;3.63;;;;;;;;;;5015313;28;20515;-83
2023/12/10 13:04:28;;;;;;;14.60;4.07;;;;;;;;;;5015458;28;20465;-84
2023/12/10 13:06:54;;;;;;;9.13;3.67;;;;;;;;;;5046732;28;20540;-84
2023/12/10 13:09:22;;;;;;;15.60;3.73;;;;;;;;;;5015273;28;20560;-83
2023/12/10 13:11:49;;;;;;;18.97;4.27;;;;;;;;;;5015420;28;20524;-84
2023/12/10 13:14:16;;;;;;;11.93;4.23;;;;;;;;;;5014223;28;20515;-83
2023/12/10 13:16:43;;;;;;;10.30;3.97;;;;;;;;;;5014837;28;20859;-84
2023/12/10 13:19:10;;;;;;;13.70;4.03;;;;;;;;;;5015570;28;20591;-84
2023/12/10 13:21:37;;;;;;;11.17;3.40;;;;;;;;;;5030253;28;20438;-84
2023/12/10 13:24:04;;;;;;;18.80;3.40;;;;;;;;;;5015507;28;20469;-84
2023/12/10 13:26:32;;;;;;;19.33;4.60;;;;;;;;;;5047158;28;20521;-83
2023/12/10 13:28:59;;;;;;;14.77;4.23;;;;;;;;;;5014616;28;20493;-84
2023/12/10 13:31:25;;;;;;;13.03;3.83;;;;;;;;;;5015141;28;20520;-83
2023/12/10 13:33:52;;;;;;;10.27;3.80;;;;;;;;;;5013673;28;20497;-84
2023/12/10 13:36:19;;;;;;;16.33;4.23;;;;;;;;;;5015151;28;20452;-84
2023/12/10 13:38:45;;;;;;;12.30;4.47;;;;;;;;;;5013399;28;20473;-84
2023/12/10 13:41:12;;;;;;;16.43;4.23;;;;;;;;;;5013639;28;20445;-84
2023/12/10 13:43:40;;;;;;;25.07;4.40;;;;;;;;;;5015057;28;20469;-82
2023/12/10 13:46:07;;;;;;;17.87;5.60;;;;;;;;;;5015199;28;20537;-83
2023/12/10 13:48:33;;;;;;;12.17;3.97;;;;;;;;;;5014387;28;20485;-83
2023/12/10 13:51:00;;;;;;;14.43;4.73;;;;;;;;;;5014670;28;20576;-83
2023/12/10 13:53:27;;;;;;;15.30;4.63;;;;;;;;;;5045372;28;20470;-83
2023/12/10 13:55:53;;;;;;;9.80;4.30;;;;;;;;;;5014429;28;20470;-83
2023/12/10 13:58:20;;;;;;;24.17;7.03;;;;;;;;;;5014352;28;20550;-83
2023/12/10 14:00:48;;;;;;;12.47;4.17;;;;;;;;;;5014691;28;20524;-82
2023/12/10 14:03:15;;;;;;;17.17;4.90;;;;;;;;;;5046101;28;20470;-83
2023/12/10 14:05:42;;;;;;;15.97;4.90;;;;;;;;;;5045828;28;20549;-83
2023/12/10 14:08:09;;;;;;;17.10;5.10;;;;;;;;;;5014028;28;20504;-83
2023/12/10 14:10:35;;;;;;;20.10;4.60;;;;;;;;;;5014060;28;20572;-83
2023/12/10 14:13:02;;;;;;;14.63;5.60;;;;;;;;;;5013859;28;20894;-82
2023/12/10 14:15:28;;;;;;;23.03;6.60;;;;;;;;;;5014043;28;20561;-83
2023/12/10 14:17:56;;;;;;;22.73;6.30;;;;;;;;;;5013664;28;20552;-83
2023/12/10 14:20:23;;;;;;;18.17;4.60;;;;;;;;;;5015690;28;20477;-82
2023/12/10 14:22:49;;;;;;;14.50;5.57;;;;;;;;;;5045246;28;20553;-82
2023/12/10 14:25:16;;;;;;;19.47;5.03;;;;;;;;;;5013762;28;20560;-82
2023/12/10 14:27:43;;;;;;;24.60;6.43;;;;;;;;;;5013653;28;20512;-84
2023/12/10 14:30:10;;;;;;;15.73;7.43;;;;;;;;;;5014176;28;20488;-82
2023/12/10 14:32:37;;;;;;;24.60;8.70;;;;;;;;;;5012729;28;20461;-82
2023/12/10 14:35:06;;;;;;;25.30;9.40;;;;;;;;;;5045730;28;20504;-84
2023/12/10 14:37:32;;;;;;;28.67;8.37;;;;;;;;;;5013279;28;20504;-83
2023/12/10 14:39:59;;;;;;;22.97;6.20;;;;;;;;;;5014089;28;20441;-84
2023/12/10 14:42:25;;;;;;;31.93;6.73;;;;;;;;;;5013613;28;20544;-83
2023/12/10 14:44:52;;;;;;;24.00;6.47;;;;;;;;;;5013423;28;20552;-83
2023/12/10 14:47:18;;;;;;;21.80;6.23;;;;;;;;;;5013209;28;20560;-83